Time;durP1;ratioP1;P1;durP2;ratioP2;P2;SDS_P1;SDS_P2;PMS_P1;PMS_P2;Temp;Humidity;BMP_temperature;BMP_pressure;BME280_temperature;BME280_humidity;BME280_pressure;Samples;Min_cycle;Max_cycle;Signal;HPM_P1;HPM_P2
2023/03/16 00:00:26;;;;;;;2.77;1.57;;;-1.50;99.90;-1.90;101043.00;;;;4899330;28;87836;-67
2023/03/16 00:02:52;;;;;;;3.70;2.17;;;-1.50;99.90;-2.00;101050.00;;;;4896999;28;87937;-66
2023/03/16 00:05:18;;;;;;;4.20;2.00;;;-1.50;99.90;-2.00;101040.00;;;;4899597;28;116474;-66
2023/03/16 00:07:43;;;;;;;3.63;2.37;;;-1.50;99.90;-2.00;101060.00;;;;4898518;28;101850;-67
2023/03/16 00:10:13;;;;;;;5.63;2.73;;;-1.60;99.90;-2.00;101042.00;;;;4893957;28;109364;-66
2023/03/16 00:12:39;;;;;;;5.13;2.50;;;-1.60;99.90;-2.10;101043.00;;;;4895395;28;88429;-66
2023/03/16 00:15:05;;;;;;;3.23;2.27;;;-1.60;99.90;-2.10;101048.00;;;;4911748;28;87742;-66
2023/03/16 00:17:33;;;;;;;5.00;2.27;;;-1.60;99.90;-2.10;101057.00;;;;4899298;28;87700;-65
2023/03/16 00:20:05;;;;;;;4.63;2.43;;;-1.60;99.90;-2.10;101056.00;;;;4894990;28;87802;-66
2023/03/16 00:22:32;;;;;;;4.33;3.20;;;-1.60;99.90;-2.10;101040.00;;;;4893815;28;89713;-66
2023/03/16 00:24:58;;;;;;;6.87;4.07;;;-1.70;99.90;-2.20;101051.00;;;;4891894;28;88237;-65
2023/03/16 00:27:25;;;;;;;4.53;2.50;;;-1.70;99.90;-2.20;101041.00;;;;4899275;28;87757;-65
2023/03/16 00:29:55;;;;;;;3.57;2.23;;;-1.70;99.90;-2.20;101050.00;;;;4897317;28;103185;-66
2023/03/16 00:32:28;;;;;;;5.23;2.30;;;-1.70;99.90;-2.30;101054.00;;;;4911259;28;90281;-66
2023/03/16 00:34:54;;;;;;;9.20;3.17;;;-1.80;99.90;-2.30;101050.00;;;;4901562;28;88016;-66
2023/03/16 00:37:22;;;;;;;11.37;3.60;;;-2.00;99.90;-2.30;101055.00;;;;4898495;28;88082;-65
2023/03/16 00:39:48;;;;;;;8.90;4.10;;;-1.90;99.90;-2.30;101042.00;;;;4897749;28;87259;-66
2023/03/16 00:42:16;;;;;;;11.17;3.07;;;-1.90;99.90;-2.30;101048.00;;;;4894944;28;88682;-65
2023/03/16 00:44:42;;;;;;;6.10;3.10;;;-1.90;99.90;-2.40;101050.00;;;;4895112;28;102226;-66
2023/03/16 00:47:13;;;;;;;7.37;3.83;;;-1.90;99.90;-2.40;101054.00;;;;4893394;28;103799;-67
2023/03/16 00:49:41;;;;;;;4.60;3.30;;;-1.90;99.90;-2.40;101055.00;;;;4899281;28;87676;-66
2023/03/16 00:52:13;;;;;;;4.57;2.83;;;-1.90;99.90;-2.50;101066.00;;;;4907929;28;89005;-66
2023/03/16 00:54:41;;;;;;;7.30;3.67;;;-1.40;99.90;-2.50;101072.00;;;;4898380;28;87833;-65
2023/03/16 00:57:08;;;;;;;8.03;3.17;;;-2.00;99.90;-2.50;101065.00;;;;4895517;28;87809;-66
2023/03/16 00:59:36;;;;;;;5.27;2.57;;;-2.10;99.90;-2.50;101078.00;;;;4899731;28;87878;-66
2023/03/16 01:02:05;;;;;;;7.70;3.03;;;-2.10;99.90;-2.60;101069.00;;;;4897880;28;87839;-65
2023/03/16 01:04:31;;;;;;;7.57;2.33;;;-2.10;99.90;-2.60;101078.00;;;;4898269;28;87139;-66
2023/03/16 01:06:57;;;;;;;6.73;4.37;;;-2.20;99.90;-2.60;101061.00;;;;4896768;28;87911;-65
2023/03/16 01:09:22;;;;;;;14.67;5.40;;;-2.20;99.90;-2.60;101072.00;;;;4891233;28;109386;-65
2023/03/16 01:11:52;;;;;;;16.37;6.87;;;-2.20;99.90;-2.60;101073.00;;;;4907322;28;118392;-66
2023/03/16 01:14:18;;;;;;;12.50;6.60;;;-2.20;99.90;-2.60;101065.00;;;;4899640;28;88861;-66
2023/03/16 01:16:44;;;;;;;16.00;5.87;;;-2.30;99.90;-2.60;101074.00;;;;4898378;28;88008;-65
2023/03/16 01:19:11;;;;;;;10.67;4.90;;;-2.20;99.90;-2.70;101076.00;;;;4895629;28;87799;-65
2023/03/16 01:21:39;;;;;;;10.80;4.90;;;-2.20;99.90;-2.70;101075.00;;;;4897973;28;108880;-66
2023/03/16 01:24:04;;;;;;;8.80;5.03;;;-2.30;99.90;-2.70;101086.00;;;;4897266;28;88666;-66
2023/03/16 01:26:31;;;;;;;6.07;3.77;;;-2.20;99.90;-2.70;101084.00;;;;4897000;28;110800;-66
2023/03/16 01:28:57;;;;;;;4.90;3.13;;;-2.20;99.90;-2.70;101088.00;;;;4905274;28;87109;-66
2023/03/16 01:31:22;;;;;;;10.07;3.00;;;-2.20;99.90;-2.70;101084.00;;;;4913248;28;94455;-66
2023/03/16 01:33:48;;;;;;;5.73;2.97;;;-2.20;99.90;-2.80;101080.00;;;;4898449;28;103707;-65
2023/03/16 01:36:17;;;;;;;4.77;3.23;;;-2.30;99.90;-2.70;101091.00;;;;4898403;28;89013;-66
2023/03/16 01:38:43;;;;;;;5.00;2.77;;;-2.30;99.90;-2.80;101084.00;;;;4899865;28;88040;-65
2023/03/16 01:41:10;;;;;;;5.10;3.13;;;-2.30;99.90;-2.80;101084.00;;;;4896933;28;95263;-66
2023/03/16 01:43:38;;;;;;;4.70;3.63;;;-2.40;99.90;-2.80;101082.00;;;;4898546;28;110634;-65
2023/03/16 01:46:03;;;;;;;7.43;2.33;;;-2.30;99.90;-2.80;101086.00;;;;4901162;28;87764;-66
2023/03/16 01:48:43;;;;;;;3.80;2.20;;;-2.40;99.90;-2.90;101082.00;;;;4913070;28;87902;-66
2023/03/16 01:51:15;;;;;;;7.07;2.83;;;-2.30;99.90;-2.90;101085.00;;;;4901644;28;88110;-66
2023/03/16 01:53:44;;;;;;;6.37;3.20;;;-2.40;99.90;-2.90;101081.00;;;;4897311;28;87805;-66
2023/03/16 01:56:14;;;;;;;4.63;2.70;;;-2.40;99.90;-2.90;101085.00;;;;4898027;28;87870;-66
2023/03/16 01:58:43;;;;;;;8.90;2.80;;;-2.10;99.90;-2.90;101081.00;;;;4901642;28;99097;-65
2023/03/16 02:01:10;;;;;;;4.93;2.47;;;-2.70;99.90;-3.00;101074.00;;;;4897842;28;106625;-65
2023/03/16 02:03:36;;;;;;;3.83;2.23;;;-2.50;99.90;-3.00;101081.00;;;;4894786;28;110797;-67
2023/03/16 02:06:08;;;;;;;7.20;2.37;;;-2.50;99.90;-3.00;101069.00;;;;4898610;28;99047;-67
2023/03/16 02:08:37;;;;;;;6.40;2.37;;;-2.50;99.90;-3.00;101077.00;;;;4907240;28;87899;-66
2023/03/16 02:11:06;;;;;;;3.10;2.80;;;-2.60;99.90;-3.00;101080.00;;;;4914819;28;88836;-66
2023/03/16 02:13:35;;;;;;;3.63;2.60;;;-2.50;99.90;-3.10;101074.00;;;;4900300;28;116277;-66
2023/03/16 02:16:07;;;;;;;4.20;2.93;;;-1.90;99.90;-3.10;101073.00;;;;4902146;28;88178;-65
2023/03/16 02:18:33;;;;;;;5.60;2.90;;;-2.60;99.90;-3.10;101073.00;;;;4892833;28;87464;-65
2023/03/16 02:21:34;;;;;;;4.47;2.80;;;-2.60;99.90;-3.20;101070.00;;;;4901473;28;116735;-65
2023/03/16 02:24:02;;;;;;;4.03;2.47;;;-2.70;99.90;-3.10;101084.00;;;;4913525;28;93972;-65
2023/03/16 02:26:36;;;;;;;5.23;2.90;;;-2.70;99.90;-3.20;101077.00;;;;4911884;28;88593;-66
2023/03/16 02:29:40;;;;;;;2.57;2.23;;;-2.70;99.90;-3.20;101077.00;;;;4899902;28;87835;-65
2023/03/16 02:32:06;;;;;;;3.37;2.37;;;-2.60;99.90;-3.20;101082.00;;;;4895334;28;87957;-65
2023/03/16 02:34:32;;;;;;;3.57;2.40;;;-2.20;99.90;-3.20;101078.00;;;;4900769;28;116886;-67
2023/03/16 02:36:59;;;;;;;4.30;2.83;;;-2.70;99.90;-3.20;101076.00;;;;4894995;28;109694;-66
2023/03/16 02:39:25;;;;;;;2.97;2.47;;;-2.70;99.90;-3.20;101080.00;;;;4895263;28;88041;-65
2023/03/16 02:41:51;;;;;;;3.47;2.50;;;-2.70;99.90;-3.20;101086.00;;;;4897253;28;119410;-65
2023/03/16 02:44:32;;;;;;;4.10;2.03;;;-2.70;99.90;-3.30;101075.00;;;;4909442;28;116863;-66
2023/03/16 02:47:04;;;;;;;6.17;3.17;;;-2.60;99.90;-3.30;101081.00;;;;4894860;28;87757;-65
2023/03/16 02:49:37;;;;;;;3.13;2.60;;;-2.90;99.90;-3.30;101077.00;;;;4899837;28;98108;-66
2023/03/16 02:52:06;;;;;;;9.53;2.37;;;-2.80;99.90;-3.30;101084.00;;;;4899323;28;112488;-68
2023/03/16 02:54:32;;;;;;;2.93;2.40;;;-1.60;99.90;-3.40;101071.00;;;;4898697;28;90305;-66
2023/03/16 02:56:58;;;;;;;3.60;2.60;;;-2.90;99.90;-3.40;101077.00;;;;4899387;28;94319;-66
2023/03/16 02:59:25;;;;;;;5.07;2.77;;;-2.80;99.90;-3.40;101083.00;;;;4898048;28;88051;-67
2023/03/16 03:01:50;;;;;;;5.40;2.77;;;-2.90;99.90;-3.40;101077.00;;;;4892929;28;110216;-66
2023/03/16 03:04:16;;;;;;;3.23;2.67;;;-2.90;99.90;-3.40;101082.00;;;;4907973;28;116182;-66
2023/03/16 03:06:42;;;;;;;5.30;3.07;;;-2.80;99.90;-3.40;101091.00;;;;4900024;28;110611;-66
2023/03/16 03:09:12;;;;;;;6.60;3.07;;;-2.90;99.90;-3.40;101092.00;;;;4898985;28;109900;-66
2023/03/16 03:11:38;;;;;;;3.63;2.73;;;-2.80;99.90;-3.40;101082.00;;;;4895486;28;87740;-66
2023/03/16 03:14:03;;;;;;;2.87;2.60;;;-2.90;99.90;-3.40;101096.00;;;;4900501;28;87820;-65
2023/03/16 03:16:30;;;;;;;8.50;2.97;;;-2.90;99.90;-3.40;101085.00;;;;4892161;28;110108;-67
2023/03/16 03:18:56;;;;;;;6.03;3.27;;;-2.90;99.90;-3.40;101090.00;;;;4877984;28;87859;-66
2023/03/16 03:21:23;;;;;;;4.63;3.03;;;-2.90;99.90;-3.40;101099.00;;;;4901777;28;88909;-67
2023/03/16 03:23:49;;;;;;;5.43;2.90;;;-2.90;99.90;-3.40;101094.00;;;;4900692;28;87989;-67
2023/03/16 03:26:15;;;;;;;3.13;2.40;;;-2.90;99.90;-3.40;101103.00;;;;4900029;28;97803;-66
2023/03/16 03:28:42;;;;;;;3.00;1.93;;;-2.90;99.90;-3.40;101093.00;;;;4899111;28;110028;-66
2023/03/16 03:31:17;;;;;;;3.93;2.77;;;-2.90;99.90;-3.50;101084.00;;;;4896169;28;117419;-66
2023/03/16 03:33:43;;;;;;;9.63;3.20;;;-2.90;99.90;-3.50;101096.00;;;;4898571;28;88875;-66
2023/03/16 03:36:10;;;;;;;6.70;2.90;;;-3.00;99.90;-3.50;101092.00;;;;4896216;28;99132;-66
2023/03/16 03:38:36;;;;;;;4.17;3.13;;;-3.00;99.90;-3.50;101093.00;;;;4898018;28;87942;-66
2023/03/16 03:41:03;;;;;;;7.17;3.43;;;-3.00;99.90;-3.50;101111.00;;;;4907720;28;88745;-66
2023/03/16 03:43:29;;;;;;;4.87;2.87;;;-2.90;99.90;-3.50;101105.00;;;;4896811;28;112975;-66
2023/03/16 03:46:00;;;;;;;5.13;2.80;;;-3.00;99.90;-3.60;101095.00;;;;4896811;28;87973;-65
2023/03/16 03:48:26;;;;;;;4.07;2.00;;;-3.00;99.90;-3.60;101114.00;;;;4899469;28;87689;-67
2023/03/16 03:50:53;;;;;;;4.07;2.97;;;-3.10;99.90;-3.60;101119.00;;;;4899160;28;88573;-67
2023/03/16 03:53:19;;;;;;;4.40;2.90;;;-3.10;99.90;-3.70;101124.00;;;;4896270;28;98405;-66
2023/03/16 03:55:45;;;;;;;5.23;2.83;;;-3.10;99.90;-3.70;101123.00;;;;4894134;28;102435;-68
2023/03/16 03:58:11;;;;;;;5.53;3.13;;;-3.10;99.90;-3.70;101116.00;;;;4894417;28;110196;-66
2023/03/16 04:00:37;;;;;;;6.77;3.10;;;-3.20;99.90;-3.70;101108.00;;;;4911775;28;89029;-66
2023/03/16 04:03:03;;;;;;;7.43;3.07;;;-3.20;99.90;-3.70;101115.00;;;;4897501;28;105314;-66
2023/03/16 04:05:29;;;;;;;4.30;3.13;;;-3.30;99.90;-3.70;101122.00;;;;4897642;28;88836;-66
2023/03/16 04:07:56;;;;;;;3.57;2.27;;;-3.10;99.90;-3.80;101119.00;;;;4894888;28;89053;-66
2023/03/16 04:10:30;;;;;;;4.97;3.17;;;-3.30;99.90;-3.80;101124.00;;;;4895486;28;88083;-66
2023/03/16 04:12:57;;;;;;;5.57;3.13;;;-3.40;99.90;-3.80;101117.00;;;;4892674;28;88191;-66
2023/03/16 04:15:22;;;;;;;5.67;2.97;;;-2.50;99.90;-3.80;101118.00;;;;4897959;28;99084;-66
2023/03/16 04:17:49;;;;;;;5.77;3.00;;;-3.40;99.90;-3.80;101120.00;;;;4905788;28;88055;-66
2023/03/16 04:20:18;;;;;;;4.60;2.97;;;-3.30;99.90;-3.80;101108.00;;;;4900151;28;107626;-66
2023/03/16 04:22:45;;;;;;;6.63;3.30;;;-3.30;99.90;-3.80;101114.00;;;;4889856;28;87277;-66
2023/03/16 04:25:14;;;;;;;4.00;3.33;;;-3.40;99.90;-3.80;101122.00;;;;4898063;28;92035;-65
2023/03/16 04:27:41;;;;;;;5.40;3.77;;;-3.40;99.90;-3.80;101123.00;;;;4897029;28;88018;-65
2023/03/16 04:30:11;;;;;;;6.17;4.13;;;-3.30;99.90;-3.90;101125.00;;;;4895413;28;111336;-65
2023/03/16 04:32:37;;;;;;;7.17;3.40;;;-3.00;99.90;-3.90;101117.00;;;;4893101;28;89698;-65
2023/03/16 04:35:04;;;;;;;6.07;3.57;;;-3.30;99.90;-3.90;101112.00;;;;4898581;28;103654;-65
2023/03/16 04:37:30;;;;;;;10.17;3.70;;;-3.30;99.90;-3.90;101117.00;;;;4911518;28;87978;-66
2023/03/16 04:39:56;;;;;;;6.90;3.50;;;-3.30;99.90;-3.90;101116.00;;;;4897388;28;108806;-65
2023/03/16 04:42:22;;;;;;;8.53;6.00;;;-3.40;99.90;-3.90;101111.00;;;;4892991;28;117092;-66
2023/03/16 04:44:48;;;;;;;15.80;5.17;;;-3.50;99.90;-3.90;101121.00;;;;4897432;28;109924;-66
2023/03/16 04:47:15;;;;;;;5.47;3.60;;;-3.30;99.90;-3.90;101125.00;;;;4896043;28;108465;-66
2023/03/16 04:49:41;;;;;;;7.23;4.57;;;-3.40;99.90;-3.90;101116.00;;;;4895933;28;94572;-66
2023/03/16 04:52:08;;;;;;;6.83;4.30;;;-3.30;99.90;-3.90;101119.00;;;;4898031;28;102045;-65
2023/03/16 04:54:34;;;;;;;7.83;3.37;;;-3.30;99.90;-3.80;101126.00;;;;4892775;28;88977;-65
2023/03/16 04:57:02;;;;;;;7.80;3.77;;;-3.30;99.90;-3.80;101130.00;;;;4909712;28;109387;-66
2023/03/16 04:59:28;;;;;;;7.20;4.10;;;-3.30;99.90;-3.80;101120.00;;;;4913400;28;88637;-65
2023/03/16 05:01:53;;;;;;;9.20;3.00;;;-3.30;99.90;-3.80;101140.00;;;;4898857;28;87975;-65
2023/03/16 05:04:22;;;;;;;9.43;4.20;;;-3.20;99.90;-3.80;101124.00;;;;4895194;28;108657;-65
2023/03/16 05:06:47;;;;;;;4.97;3.43;;;-3.40;99.90;-3.80;101135.00;;;;4894775;28;87682;-66
2023/03/16 05:09:13;;;;;;;6.67;3.87;;;-3.20;99.90;-3.80;101123.00;;;;4902030;28;88673;-66
2023/03/16 05:11:39;;;;;;;15.63;10.67;;;-3.30;99.90;-3.80;101142.00;;;;4899077;28;117601;-65
2023/03/16 05:14:05;;;;;;;15.87;8.53;;;-3.30;99.90;-3.80;101132.00;;;;4908271;28;87729;-66
2023/03/16 05:16:31;;;;;;;19.53;9.00;;;-3.30;99.90;-3.80;101135.00;;;;4902316;28;110448;-66
2023/03/16 05:18:58;;;;;;;11.43;7.93;;;-3.30;99.90;-3.80;101130.00;;;;4900551;28;107609;-66
2023/03/16 05:21:24;;;;;;;14.70;7.10;;;-3.20;99.90;-3.80;101137.00;;;;4902695;28;88747;-66
2023/03/16 05:23:50;;;;;;;12.20;7.20;;;-3.30;99.90;-3.70;101133.00;;;;4901757;28;110287;-66
2023/03/16 05:26:17;;;;;;;9.33;5.77;;;-3.30;99.90;-3.70;101129.00;;;;4898644;28;87640;-66
2023/03/16 05:28:44;;;;;;;12.83;5.50;;;-3.30;99.90;-3.70;101139.00;;;;4894757;28;105152;-66
2023/03/16 05:31:10;;;;;;;8.87;5.23;;;-3.20;99.90;-3.60;101138.00;;;;4901006;28;91178;-66
2023/03/16 05:33:36;;;;;;;8.57;5.57;;;-3.10;99.90;-3.60;101141.00;;;;4912765;28;87692;-67
2023/03/16 05:36:03;;;;;;;8.23;5.50;;;-3.10;99.90;-3.50;101147.00;;;;4899314;28;87133;-66
2023/03/16 05:38:30;;;;;;;7.00;4.77;;;-3.10;99.90;-3.50;101142.00;;;;4899237;28;87770;-66
2023/03/16 05:41:00;;;;;;;9.80;4.67;;;-3.00;99.90;-3.40;101144.00;;;;4902186;28;88277;-66
2023/03/16 05:43:28;;;;;;;11.67;4.00;;;-3.00;99.90;-3.40;101144.00;;;;4898245;28;89089;-67
2023/03/16 05:45:54;;;;;;;6.63;4.90;;;-2.90;99.90;-3.30;101153.00;;;;4898647;28;87906;-66
2023/03/16 05:48:20;;;;;;;8.27;4.93;;;-2.80;99.90;-3.20;101144.00;;;;4896293;28;99433;-66
2023/03/16 05:50:46;;;;;;;9.67;5.80;;;-2.80;99.90;-3.10;101156.00;;;;4897166;28;87857;-65
2023/03/16 05:53:12;;;;;;;8.90;6.27;;;-2.70;99.90;-3.00;101148.00;;;;4912779;28;87936;-66
2023/03/16 05:55:38;;;;;;;11.83;8.37;;;-2.50;99.90;-2.80;101138.00;;;;4897921;28;88080;-66
2023/03/16 05:58:04;;;;;;;9.73;6.83;;;-2.50;99.90;-2.70;101149.00;;;;4900290;28;87991;-66
2023/03/16 06:00:30;;;;;;;9.13;5.57;;;-2.30;99.90;-2.60;101152.00;;;;4894012;28;116593;-66
2023/03/16 06:02:56;;;;;;;7.13;4.93;;;-2.20;99.90;-2.40;101167.00;;;;4899397;28;88104;-65
2023/03/16 06:05:23;;;;;;;7.00;4.90;;;-2.10;99.90;-2.30;101169.00;;;;4901878;28;102619;-66
2023/03/16 06:07:49;;;;;;;8.77;4.77;;;-2.00;99.90;-2.10;101170.00;;;;4899240;28;88928;-65
2023/03/16 06:10:15;;;;;;;9.53;5.13;;;-1.70;99.90;-2.00;101164.00;;;;4906374;28;89766;-65
2023/03/16 06:12:41;;;;;;;8.03;4.83;;;-1.50;99.90;-1.80;101161.00;;;;4904301;28;88022;-65
2023/03/16 06:15:09;;;;;;;12.73;5.40;;;-0.70;99.90;-1.70;101154.00;;;;4899994;28;109703;-65
2023/03/16 06:17:35;;;;;;;12.03;5.30;;;-1.30;99.90;-1.60;101171.00;;;;4898099;28;88279;-64
2023/03/16 06:20:04;;;;;;;6.60;4.63;;;-1.10;99.90;-1.40;101170.00;;;;4899018;28;99577;-64
2023/03/16 06:22:30;;;;;;;7.23;4.37;;;-1.10;99.90;-1.30;101168.00;;;;4895811;28;87850;-65
2023/03/16 06:24:55;;;;;;;8.90;4.03;;;-0.80;99.90;-1.10;101164.00;;;;4898450;28;94236;-64
2023/03/16 06:27:24;;;;;;;7.60;4.43;;;-0.80;99.90;-0.90;101168.00;;;;4896779;28;117536;-65
2023/03/16 06:29:49;;;;;;;6.27;3.87;;;-0.60;99.90;-0.70;101175.00;;;;4910542;28;89309;-66
2023/03/16 06:32:15;;;;;;;5.67;3.67;;;-0.40;99.90;-0.50;101167.00;;;;4895475;28;109480;-65
2023/03/16 06:34:40;;;;;;;7.37;3.70;;;-0.20;99.90;-0.30;101185.00;;;;4899413;28;109341;-65
2023/03/16 06:37:06;;;;;;;5.27;3.33;;;0.00;99.90;-0.20;101183.00;;;;4899767;28;88844;-66
2023/03/16 06:39:32;;;;;;;5.83;4.13;;;0.20;99.90;0.10;101182.00;;;;4897170;28;88206;-66
2023/03/16 06:41:58;;;;;;;5.20;3.23;;;0.30;99.90;0.30;101191.00;;;;4899620;28;109713;-66
2023/03/16 06:44:24;;;;;;;4.90;3.10;;;0.60;99.90;0.50;101196.00;;;;4898264;28;106098;-66
2023/03/16 06:46:49;;;;;;;5.00;3.37;;;0.90;99.90;0.70;101185.00;;;;4898322;28;88432;-65
2023/03/16 06:49:15;;;;;;;6.47;2.90;;;0.90;99.90;0.90;101185.00;;;;4913284;28;88735;-65
2023/03/16 06:51:41;;;;;;;3.60;3.20;;;1.20;99.90;1.10;101192.00;;;;4900609;28;87833;-66
2023/03/16 06:54:07;;;;;;;4.67;2.43;;;2.00;99.90;1.30;101181.00;;;;4898128;28;107829;-65
2023/03/16 06:56:33;;;;;;;4.90;3.30;;;1.60;99.90;1.40;101188.00;;;;4895988;28;116479;-66
2023/03/16 06:59:00;;;;;;;3.97;2.67;;;2.60;99.90;1.60;101179.00;;;;4898304;28;103060;-65
2023/03/16 07:01:26;;;;;;;5.53;2.83;;;1.90;99.90;1.80;101186.00;;;;4899314;28;87851;-65
2023/03/16 07:03:51;;;;;;;4.43;3.13;;;2.10;99.90;2.00;101188.00;;;;4899135;28;107716;-66
2023/03/16 07:06:17;;;;;;;2.40;2.20;;;2.30;99.90;2.20;101188.00;;;;4901223;28;89424;-66
2023/03/16 07:08:43;;;;;;;2.20;2.00;;;2.30;99.90;2.50;101195.00;;;;4906595;28;114927;-66
2023/03/16 07:11:09;;;;;;;4.80;2.83;;;2.50;99.90;2.70;101208.00;;;;4897460;28;111333;-67
2023/03/16 07:13:36;;;;;;;2.10;1.90;;;2.90;99.90;3.00;101205.00;;;;4901524;28;86947;-66
2023/03/16 07:16:03;;;;;;;4.10;2.83;;;3.10;99.90;3.30;101213.00;;;;4899892;28;117145;-66
2023/03/16 07:18:30;;;;;;;3.90;2.90;;;3.60;99.90;3.50;101221.00;;;;4894476;28;87768;-67
2023/03/16 07:20:56;;;;;;;5.20;3.07;;;3.70;99.90;3.70;101215.00;;;;4898456;28;88958;-68
2023/03/16 07:23:23;;;;;;;2.23;1.73;;;3.90;99.90;3.90;101221.00;;;;4900295;28;87931;-68
2023/03/16 07:25:49;;;;;;;2.33;2.13;;;4.10;99.90;4.10;101218.00;;;;4912364;28;87994;-68
2023/03/16 07:28:14;;;;;;;3.03;2.27;;;5.20;99.90;4.30;101215.00;;;;4893744;28;88175;-68
2023/03/16 07:30:40;;;;;;;3.10;1.93;;;4.50;99.90;4.40;101219.00;;;;4899041;28;109721;-68
2023/03/16 07:33:05;;;;;;;2.57;2.17;;;4.70;99.90;4.60;101218.00;;;;4897608;28;99386;-68
2023/03/16 07:35:32;;;;;;;1.90;1.60;;;4.70;99.90;4.80;101223.00;;;;4899373;28;118680;-67
2023/03/16 07:37:57;;;;;;;2.03;1.83;;;4.90;99.90;4.90;101228.00;;;;4900204;28;87442;-67
2023/03/16 07:40:23;;;;;;;3.30;2.00;;;5.10;99.90;5.00;101231.00;;;;4893993;28;109627;-67
2023/03/16 07:42:49;;;;;;;3.17;2.03;;;5.20;99.90;5.10;101239.00;;;;4899751;28;108929;-67
2023/03/16 07:45:16;;;;;;;2.23;1.90;;;5.30;99.90;5.20;101237.00;;;;4907243;28;118335;-67
2023/03/16 07:47:42;;;;;;;1.90;1.67;;;5.40;99.90;5.40;101245.00;;;;4900111;28;89948;-68
2023/03/16 07:50:10;;;;;;;3.43;1.83;;;5.60;99.90;5.60;101245.00;;;;4909948;28;88196;-67
2023/03/16 07:52:36;;;;;;;2.20;1.83;;;5.80;99.90;5.80;101237.00;;;;4900949;28;87665;-67
2023/03/16 07:55:02;;;;;;;2.70;1.93;;;6.00;99.90;5.90;101257.00;;;;4895587;28;87826;-67
2023/03/16 07:57:28;;;;;;;3.43;1.70;;;6.10;99.90;6.10;101249.00;;;;4894222;28;88771;-67
2023/03/16 07:59:54;;;;;;;3.07;1.73;;;6.30;99.90;6.20;101251.00;;;;4894880;28;101821;-66
2023/03/16 08:02:20;;;;;;;2.83;2.03;;;6.40;99.90;6.40;101256.00;;;;4891649;28;109559;-66
2023/03/16 08:04:46;;;;;;;4.93;2.00;;;7.20;99.90;6.30;101249.00;;;;4895194;28;88167;-65
2023/03/16 08:07:13;;;;;;;1.43;1.33;;;7.40;99.90;6.40;101240.00;;;;4894871;28;119024;-66
2023/03/16 08:09:40;;;;;;;5.30;2.27;;;7.40;99.90;6.50;101247.00;;;;4896449;28;88740;-67
2023/03/16 08:12:07;;;;;;;2.50;1.77;;;6.80;99.90;6.70;101242.00;;;;4895139;28;87828;-67
2023/03/16 08:14:33;;;;;;;2.93;2.30;;;6.90;99.90;6.90;101244.00;;;;4894105;28;107472;-67
2023/03/16 08:17:04;;;;;;;2.13;1.63;;;7.00;99.90;7.00;101248.00;;;;4890025;28;91484;-67
2023/03/16 08:19:31;;;;;;;3.67;1.70;;;7.20;99.90;7.00;101245.00;;;;4892181;28;87763;-67
2023/03/16 08:21:59;;;;;;;1.90;1.70;;;7.20;99.90;7.00;101245.00;;;;4895350;28;87660;-68
2023/03/16 08:24:26;;;;;;;2.57;1.70;;;7.20;99.90;7.10;101253.00;;;;4895339;28;87587;-68
2023/03/16 08:26:52;;;;;;;3.77;2.33;;;7.30;99.90;7.30;101254.00;;;;4895284;28;109958;-67
2023/03/16 08:29:18;;;;;;;2.10;1.87;;;7.40;99.90;7.50;101247.00;;;;4894792;28;109504;-67
2023/03/16 08:31:44;;;;;;;2.33;1.70;;;7.60;99.90;7.60;101253.00;;;;4895828;28;88298;-68
2023/03/16 08:34:10;;;;;;;2.93;2.17;;;7.70;99.90;7.70;101254.00;;;;4892999;28;114335;-68
2023/03/16 08:36:36;;;;;;;2.73;1.93;;;7.70;99.90;7.80;101256.00;;;;4889760;28;117212;-68
2023/03/16 08:39:04;;;;;;;1.47;1.10;;;7.90;99.90;7.90;101262.00;;;;4893551;28;88009;-68
2023/03/16 08:41:31;;;;;;;2.30;1.53;;;8.10;99.90;8.00;101262.00;;;;4893959;28;87848;-68
2023/03/16 08:43:58;;;;;;;3.77;1.57;;;8.10;99.90;8.10;101261.00;;;;4897413;28;89365;-68
2023/03/16 08:46:24;;;;;;;2.30;1.57;;;8.20;99.90;8.10;101266.00;;;;4897554;28;88612;-68
2023/03/16 08:48:51;;;;;;;2.40;1.30;;;8.30;99.90;8.20;101268.00;;;;4897242;28;87988;-69
2023/03/16 08:51:17;;;;;;;1.77;1.43;;;8.30;99.30;8.30;101274.00;;;;4896872;28;87070;-69
2023/03/16 08:53:44;;;;;;;2.47;0.90;;;8.40;98.70;8.40;101282.00;;;;4898822;28;88782;-67
2023/03/16 08:56:13;;;;;;;3.13;1.07;;;8.50;97.70;8.40;101282.00;;;;4896592;28;87859;-67
2023/03/16 08:58:44;;;;;;;1.57;1.10;;;8.50;96.30;8.50;101289.00;;;;4895887;28;89090;-67
2023/03/16 09:01:12;;;;;;;2.83;1.17;;;8.60;97.40;8.60;101289.00;;;;4899115;28;87864;-67
2023/03/16 09:03:39;;;;;;;1.60;1.27;;;8.70;95.40;8.70;101283.00;;;;4897601;28;87902;-69
2023/03/16 09:06:11;;;;;;;1.47;1.10;;;8.90;94.40;8.80;101288.00;;;;4880512;28;87954;-70
2023/03/16 09:08:39;;;;;;;2.80;0.77;;;8.90;94.30;8.90;101284.00;;;;4891047;28;89431;-69
2023/03/16 09:11:08;;;;;;;1.20;0.97;;;9.00;93.90;9.10;101289.00;;;;4897749;28;87725;-68
2023/03/16 09:13:38;;;;;;;3.53;1.20;;;9.20;93.00;9.20;101292.00;;;;4894368;28;88956;-68
2023/03/16 09:16:05;;;;;;;1.20;0.97;;;9.30;92.90;9.40;101288.00;;;;4896698;28;89444;-68
2023/03/16 09:18:32;;;;;;;1.33;0.90;;;9.50;92.60;9.70;101278.00;;;;4897689;28;92192;-68
2023/03/16 09:21:00;;;;;;;0.43;0.43;;;9.70;91.50;9.80;101274.00;;;;4897353;28;88917;-68
2023/03/16 09:23:26;;;;;;;15.60;1.37;;;9.90;90.70;10.00;101284.00;;;;4895397;28;88736;-68
2023/03/16 09:25:53;;;;;;;0.60;0.43;;;10.20;88.90;10.20;101286.00;;;;4897517;28;89951;-68
2023/03/16 09:28:19;;;;;;;1.80;0.70;;;10.30;88.20;10.50;101284.00;;;;4896871;28;87708;-67
2023/03/16 09:30:46;;;;;;;2.23;0.77;;;10.50;87.20;10.70;101292.00;;;;4896179;28;108816;-67
2023/03/16 09:33:12;;;;;;;0.77;0.70;;;10.80;81.70;10.80;101284.00;;;;4894678;28;88345;-67
2023/03/16 09:35:37;;;;;;;6.70;1.30;;;10.80;81.20;10.90;101283.00;;;;4895508;28;88347;-69
2023/03/16 09:38:03;;;;;;;9.53;0.87;;;11.10;76.20;10.90;101287.00;;;;4893795;28;88146;-68
2023/03/16 09:40:30;;;;;;;0.63;0.60;;;11.10;75.60;11.10;101292.00;;;;4896896;28;87158;-67
2023/03/16 09:43:42;;;;;;;0.63;0.60;;;11.20;73.20;11.20;101284.00;;;;4897014;28;88120;-68
2023/03/16 09:46:21;;;;;;;0.87;0.87;;;11.30;69.20;11.30;101296.00;;;;4894705;28;87888;-67
2023/03/16 09:48:47;;;;;;;0.73;0.60;;;11.30;68.10;11.30;101285.00;;;;4896196;28;88780;-70
2023/03/16 09:51:38;;;;;;;7.03;0.90;;;11.50;66.90;11.60;101295.00;;;;4896362;28;108127;-66
2023/03/16 09:54:28;;;;;;;3.57;0.97;;;11.60;66.70;11.80;101294.00;;;;4892020;28;113230;-67
2023/03/16 09:56:56;;;;;;;1.03;0.67;;;11.80;63.80;11.90;101287.00;;;;4892585;28;104525;-68
2023/03/16 09:59:22;;;;;;;1.33;1.00;;;11.90;64.40;12.10;101287.00;;;;4895558;28;87858;-69
2023/03/16 10:02:15;;;;;;;1.67;0.77;;;12.00;63.20;12.40;101289.00;;;;4895257;28;108847;-68
2023/03/16 10:05:08;;;;;;;0.57;0.57;;;12.30;62.70;12.50;101302.00;;;;4909399;28;112990;-67
2023/03/16 10:07:42;;;;;;;4.23;0.73;;;12.40;59.50;12.60;101304.00;;;;4908933;28;87338;-66
2023/03/16 10:10:13;;;;;;;1.53;1.03;;;12.40;57.70;12.60;101292.00;;;;4892359;28;87918;-66
2023/03/16 10:12:45;;;;;;;0.30;0.30;;;12.50;57.20;12.90;101288.00;;;;4898482;28;87862;-67
2023/03/16 10:15:17;;;;;;;0.40;0.40;;;12.60;58.40;13.10;101291.00;;;;4896676;28;88847;-67
2023/03/16 10:18:00;;;;;;;0.87;0.60;;;12.90;57.30;13.10;101289.00;;;;4894917;28;88955;-68
2023/03/16 10:20:31;;;;;;;1.07;0.57;;;13.00;55.70;13.00;101277.00;;;;4911717;28;87855;-67
2023/03/16 10:23:00;;;;;;;0.50;0.40;;;13.00;52.80;12.80;101277.00;;;;4891868;28;89719;-66
2023/03/16 10:25:40;;;;;;;0.70;0.40;;;12.80;50.60;12.70;101262.00;;;;4895350;28;89316;-67
2023/03/16 10:28:06;;;;;;;1.03;0.93;;;12.70;50.80;12.70;101271.00;;;;4887880;28;110505;-66
2023/03/16 10:30:35;;;;;;;0.50;0.40;;;12.70;51.00;12.80;101276.00;;;;4893416;28;87784;-69
2023/03/16 10:33:39;;;;;;;1.43;0.43;;;12.60;51.00;12.80;101265.00;;;;4895383;28;87387;-67
2023/03/16 10:36:32;;;;;;;2.23;0.50;;;12.70;51.70;13.10;101276.00;;;;4873158;28;88364;-66
2023/03/16 10:39:13;;;;;;;1.53;0.67;;;12.80;51.20;13.20;101264.00;;;;4893944;28;88093;-67
2023/03/16 10:41:42;;;;;;;0.80;0.40;;;13.00;51.70;13.50;101261.00;;;;4896072;28;88883;-69
2023/03/16 10:44:15;;;;;;;0.30;0.30;;;13.20;52.20;13.90;101260.00;;;;4893169;28;89486;-70
2023/03/16 10:46:47;;;;;;;0.53;0.40;;;13.50;53.50;14.20;101270.00;;;;4888824;28;88178;-66
2023/03/16 10:49:40;;;;;;;1.17;0.83;;;13.90;51.60;14.40;101267.00;;;;4894062;28;89171;-68
2023/03/16 10:52:18;;;;;;;1.98;0.50;;;14.10;51.60;14.60;101269.00;;;;4895298;28;87859;-67